createdAt,value
2023-01-28T00:01:34.159Z,102833.50
2023-01-28T00:04:03.248Z,102839.69
2023-01-28T00:06:30.989Z,102833.50
2023-01-28T00:08:58.685Z,102837.88
2023-01-28T00:11:27.771Z,102830.56
2023-01-28T00:13:56.131Z,102840.81
2023-01-28T00:16:23.933Z,102839.13
2023-01-28T00:18:51.836Z,102836.31
2023-01-28T00:21:20.999Z,102839.81
2023-01-28T00:23:52.134Z,102839.13
2023-01-28T00:26:20.188Z,102823.53
2023-01-28T00:28:48.119Z,102840.81
2023-01-28T00:31:18.442Z,102841.34
2023-01-28T00:33:47.775Z,102832.22
2023-01-28T00:36:16.566Z,102834.50
2023-01-28T00:38:50.907Z,102839.56
2023-01-28T00:41:21.993Z,102836.03
2023-01-28T00:43:50.188Z,102845.88
2023-01-28T00:46:18.446Z,102844.06
2023-01-28T00:48:46.717Z,102844.06
2023-01-28T00:51:17.180Z,102847.69
2023-01-28T00:53:46.589Z,102847.56
2023-01-28T00:56:16.613Z,102854.59
2023-01-28T00:58:44.569Z,102856.69
2023-01-28T01:01:13.524Z,102858.22
2023-01-28T01:03:41.601Z,102854.03
2023-01-28T01:06:10.286Z,102862.03
2023-01-28T01:08:40.140Z,102861.19
2023-01-28T01:11:11.266Z,102866.53
2023-01-28T01:13:39.532Z,102865.53
2023-01-28T01:16:10.669Z,102859.22
2023-01-28T01:18:41.821Z,102862.03
2023-01-28T01:21:11.356Z,102858.53
2023-01-28T01:23:39.118Z,102858.53
2023-01-28T01:26:07.729Z,102856.00
2023-01-28T01:28:37.268Z,102852.44
2023-01-28T01:31:07.379Z,102847.97
2023-01-28T01:33:36.028Z,102857.69
2023-01-28T01:36:04.291Z,102852.34
2023-01-28T01:38:32.006Z,102857.53
2023-01-28T01:41:01.077Z,102850.66
2023-01-28T01:43:51.941Z,102852.03
2023-01-28T01:46:24.465Z,102852.88
2023-01-28T01:48:53.432Z,102858.22
2023-01-28T01:51:26.079Z,102857.09
2023-01-28T01:53:57.237Z,102858.22
2023-01-28T01:56:29.298Z,102860.88
2023-01-28T01:58:59.221Z,102861.72
2023-01-28T02:01:30.689Z,102854.56
2023-01-28T02:04:04.212Z,102853.84
2023-01-28T02:06:33.304Z,102854.97
2023-01-28T02:09:01.042Z,102871.41
2023-01-28T02:11:32.654Z,102844.72
2023-01-28T02:14:05.633Z,102859.06
2023-01-28T02:16:34.332Z,102857.38
2023-01-28T02:19:02.840Z,102863.69
2023-01-28T02:22:03.147Z,102861.16
2023-01-28T02:24:52.309Z,102864.66
2023-01-28T02:27:31.168Z,102870.00
2023-01-28T02:30:08.527Z,102855.97
2023-01-28T02:32:43.448Z,102856.53
2023-01-28T02:35:15.780Z,102862.00
2023-01-28T02:37:48.695Z,102852.31
2023-01-28T02:40:21.299Z,102864.53
2023-01-28T02:42:49.452Z,102853.84
2023-01-28T02:45:23.799Z,102871.84
2023-01-28T02:47:59.492Z,102864.53
2023-01-28T02:50:43.442Z,102859.91
2023-01-28T02:53:44.120Z,102859.91
2023-01-28T02:56:21.253Z,102864.09
2023-01-28T02:58:57.775Z,102863.13
2023-01-28T03:01:34.738Z,102865.94
2023-01-28T03:04:04.525Z,102873.09
2023-01-28T03:06:36.407Z,102867.91
2023-01-28T03:09:27.042Z,102877.88
2023-01-28T03:12:16.483Z,102868.19
2023-01-28T03:15:05.514Z,102877.88
2023-01-28T03:17:58.594Z,102874.22
2023-01-28T03:20:45.312Z,102869.72
2023-01-28T03:23:37.148Z,102869.72
2023-01-28T03:26:26.464Z,102872.53
2023-01-28T03:29:16.814Z,102872.69
2023-01-28T03:32:02.394Z,102880.53
2023-01-28T03:34:49.009Z,102881.53
2023-01-28T03:37:16.722Z,102882.38
2023-01-28T03:39:44.438Z,102879.69
2023-01-28T03:42:14.266Z,102891.63
2023-01-28T03:44:52.089Z,102890.94
2023-01-28T03:47:20.315Z,102888.41
2023-01-28T03:49:53.080Z,102893.88
2023-01-28T03:52:23.291Z,102887.56
2023-01-28T03:54:52.866Z,102879.41
2023-01-28T03:57:22.746Z,102874.06
2023-01-28T03:59:52.811Z,102876.88
2023-01-28T04:02:22.162Z,102884.88
2023-01-28T04:04:51.593Z,102883.06
2023-01-28T04:07:19.392Z,102882.22
2023-01-28T04:09:47.144Z,102892.03
2023-01-28T04:12:14.912Z,102889.66
2023-01-28T04:14:42.699Z,102894.16
2023-01-28T04:17:10.663Z,102896.69
2023-01-28T04:19:39.029Z,102901.59
2023-01-28T04:22:12.074Z,102899.34
2023-01-28T04:24:39.826Z,102903.84
2023-01-28T04:27:07.490Z,102903.53
2023-01-28T04:29:35.185Z,102906.91
2023-01-28T04:32:02.875Z,102906.06
2023-01-28T04:34:30.554Z,102908.59
2023-01-28T04:36:58.270Z,102901.03
2023-01-28T04:39:27.331Z,102895.41
2023-01-28T04:41:55.094Z,102902.97
2023-01-28T04:44:22.807Z,102900.19
2023-01-28T04:46:50.613Z,102892.88
2023-01-28T04:49:18.388Z,102903.41
2023-01-28T04:51:46.106Z,102898.06
2023-01-28T04:54:13.824Z,102898.06
2023-01-28T04:56:42.915Z,102906.06
2023-01-28T04:59:10.568Z,102897.22
2023-01-28T05:01:38.379Z,102897.38
2023-01-28T05:04:06.447Z,102903.53
2023-01-28T05:06:34.603Z,102904.53
2023-01-28T05:09:02.278Z,102897.38
2023-01-28T05:11:30.033Z,102907.19
2023-01-28T05:13:59.169Z,102903.81
2023-01-28T05:16:26.878Z,102917.59
2023-01-28T05:18:54.659Z,102901.03
2023-01-28T05:21:22.432Z,102901.88
2023-01-28T05:23:50.169Z,102905.38
2023-01-28T05:26:17.910Z,102904.66
2023-01-28T05:28:45.671Z,102906.63
2023-01-28T05:31:14.752Z,102899.47
2023-01-28T05:33:42.505Z,102906.19
2023-01-28T05:36:10.346Z,102909.13
2023-01-28T05:38:38.075Z,102898.34
2023-01-28T05:41:06.117Z,102898.06
2023-01-28T05:43:33.899Z,102898.19
2023-01-28T05:46:01.595Z,102898.91
2023-01-28T05:48:30.692Z,102903.25
2023-01-28T05:50:58.628Z,102903.41
2023-01-28T05:53:26.833Z,102901.72
2023-01-28T05:55:55.213Z,102904.25
2023-01-28T05:58:23.208Z,102909.84
2023-01-28T06:00:51.172Z,102912.09
2023-01-28T06:03:18.812Z,102912.50
2023-01-28T06:05:49.067Z,102904.38
2023-01-28T06:08:17.033Z,102904.56
2023-01-28T06:10:44.716Z,102914.09
2023-01-28T06:13:12.366Z,102912.88
2023-01-28T06:15:40.105Z,102912.16
2023-01-28T06:18:07.805Z,102909.88
2023-01-28T06:20:35.539Z,102915.34
2023-01-28T06:23:04.625Z,102920.91
2023-01-28T06:25:32.335Z,102916.53
2023-01-28T06:28:00.027Z,102917.81
2023-01-28T06:30:28.001Z,102918.13
2023-01-28T06:32:56.515Z,102913.94
2023-01-28T06:35:24.644Z,102922.41
2023-01-28T06:37:53.087Z,102919.03
2023-01-28T06:40:23.069Z,102926.22
2023-01-28T06:42:50.874Z,102918.91
2023-01-28T06:45:18.627Z,102929.16
2023-01-28T06:47:46.338Z,102926.22
2023-01-28T06:50:14.450Z,102935.88
2023-01-28T06:52:42.401Z,102928.16
2023-01-28T06:55:10.803Z,102940.91
2023-01-28T06:57:41.416Z,102944.69
2023-01-28T07:00:13.066Z,102942.31
2023-01-28T07:02:41.373Z,102940.75
2023-01-28T07:05:09.665Z,102944.41
2023-01-28T07:07:38.299Z,102941.19
2023-01-28T07:10:08.475Z,102934.28
2023-01-28T07:12:36.177Z,102940.75
2023-01-28T07:15:05.968Z,102946.50
2023-01-28T07:17:33.743Z,102945.66
2023-01-28T07:20:01.465Z,102952.66
2023-01-28T07:22:29.147Z,102953.38
2023-01-28T07:24:58.721Z,102952.66
2023-01-28T07:27:26.428Z,102943.97
2023-01-28T07:29:54.268Z,102942.13
2023-01-28T07:32:23.528Z,102950.16
2023-01-28T07:34:51.228Z,102957.28
2023-01-28T07:37:18.943Z,102962.78
2023-01-28T07:39:46.650Z,102968.09
2023-01-28T07:42:14.359Z,102961.94
2023-01-28T07:44:42.076Z,102962.06
2023-01-28T07:47:11.615Z,102959.41
2023-01-28T07:49:40.713Z,102971.88
2023-01-28T07:52:08.444Z,102977.34
2023-01-28T07:54:36.241Z,102970.16
2023-01-28T07:57:06.175Z,102974.81
2023-01-28T07:59:33.897Z,102979.38
2023-01-28T08:02:01.877Z,102983.31
2023-01-28T08:04:29.895Z,102980.53
2023-01-28T08:06:59.602Z,102991.13
2023-01-28T08:09:27.290Z,102987.88
2023-01-28T08:11:54.990Z,102987.75
2023-01-28T08:14:22.664Z,102984.09
2023-01-28T08:16:50.364Z,102982.25
2023-01-28T08:19:18.751Z,102986.16
2023-01-28T08:21:48.695Z,102979.38
2023-01-28T08:24:18.055Z,102994.97
2023-01-28T08:26:46.317Z,103002.56
2023-01-28T08:29:14.019Z,103016.94
2023-01-28T08:31:41.797Z,103011.34
2023-01-28T08:34:09.571Z,103007.41
2023-01-28T08:36:37.278Z,103021.34
2023-01-28T08:39:06.030Z,103021.06
2023-01-28T08:41:35.129Z,103029.75
2023-01-28T08:44:02.844Z,103032.13
2023-01-28T08:46:30.585Z,103035.22
2023-01-28T08:48:58.318Z,103038.28
2023-01-28T08:51:26.137Z,103041.34
2023-01-28T08:53:53.936Z,103041.00
2023-01-28T08:56:21.730Z,103048.75
2023-01-28T08:58:50.883Z,103038.00
2023-01-28T09:01:18.601Z,103044.59
2023-01-28T09:03:46.279Z,103052.31
2023-01-28T09:06:14.089Z,103061.03
2023-01-28T09:08:41.910Z,103054.00
2023-01-28T09:11:09.608Z,103050.63
2023-01-28T09:13:37.376Z,103048.09
2023-01-28T09:16:08.176Z,103049.22
2023-01-28T09:18:36.223Z,103047.41
2023-01-28T09:21:07.093Z,103058.06
2023-01-28T09:23:36.914Z,103065.22
2023-01-28T09:26:06.551Z,103052.88
2023-01-28T09:28:34.741Z,103061.00
2023-01-28T09:31:04.652Z,103058.19
2023-01-28T09:33:34.258Z,103063.41
2023-01-28T09:36:02.870Z,103081.22
2023-01-28T09:38:31.649Z,103068.88
2023-01-28T09:41:00.251Z,103068.88
2023-01-28T09:43:45.274Z,103060.03
2023-01-28T09:46:15.671Z,103076.63
2023-01-28T09:48:48.362Z,103081.75
2023-01-28T09:51:28.515Z,103080.84
2023-01-28T09:53:58.482Z,103073.84
2023-01-28T09:56:30.011Z,103065.44
2023-01-28T09:58:59.171Z,103071.09
2023-01-28T10:01:42.400Z,103068.72
2023-01-28T10:04:23.264Z,103072.50
2023-01-28T10:07:01.095Z,103079.78
2023-01-28T10:09:41.354Z,103082.13
2023-01-28T10:12:27.908Z,103079.75
2023-01-28T10:15:12.019Z,103078.84
2023-01-28T10:17:44.756Z,103083.91
2023-01-28T10:20:22.746Z,103094.00
2023-01-28T10:22:57.180Z,103099.91
2023-01-28T10:25:29.216Z,103101.50
2023-01-28T10:27:57.172Z,103101.38
2023-01-28T10:30:26.517Z,103099.13
2023-01-28T10:32:57.529Z,103099.41
2023-01-28T10:35:27.805Z,103102.22
2023-01-28T10:38:01.648Z,103098.94
2023-01-28T10:40:30.307Z,103093.88
2023-01-28T10:42:57.987Z,103081.50
2023-01-28T10:45:29.328Z,103086.13
2023-01-28T10:48:03.173Z,103096.09
2023-01-28T10:50:33.039Z,103094.28
2023-01-28T10:53:04.496Z,103091.75
2023-01-28T10:55:37.519Z,103096.34
2023-01-28T10:58:06.155Z,103089.88
2023-01-28T11:00:38.694Z,103086.09
2023-01-28T11:03:06.693Z,103084.56
2023-01-28T11:05:35.811Z,103089.44
2023-01-28T11:08:13.237Z,103086.81
2023-01-28T11:10:41.980Z,103081.22
2023-01-28T11:13:17.791Z,103080.25
2023-01-28T11:15:50.451Z,103076.44
2023-01-28T11:18:21.807Z,103080.38
2023-01-28T11:20:57.668Z,103086.84
2023-01-28T11:23:27.287Z,103091.34
2023-01-28T11:26:05.418Z,103086.28
2023-01-28T11:28:33.835Z,103072.78
2023-01-28T11:31:04.470Z,103066.28
2023-01-28T11:33:37.167Z,103064.75
2023-01-28T11:36:15.774Z,103042.94
2023-01-28T11:38:52.614Z,103057.44
2023-01-28T11:41:26.769Z,103058.38
2023-01-28T11:43:55.370Z,103046.03
2023-01-28T11:46:40.001Z,103050.91
2023-01-28T11:49:19.259Z,103044.84
2023-01-28T11:51:55.176Z,103030.66
2023-01-28T11:54:39.958Z,103028.28
2023-01-28T11:57:24.764Z,103028.41
2023-01-28T12:00:11.566Z,103026.16
2023-01-28T12:02:54.364Z,103026.44
2023-01-28T12:05:41.234Z,103016.59
2023-01-28T12:08:19.608Z,102995.53
2023-01-28T12:11:02.608Z,102982.06
2023-01-28T12:13:44.377Z,102966.47
2023-01-28T12:16:28.832Z,102955.53
2023-01-28T12:19:31.227Z,102940.78
2023-01-28T12:22:13.585Z,102940.66
2023-01-28T12:24:58.296Z,102949.63
2023-01-28T12:27:37.720Z,102952.44
2023-01-28T12:30:21.211Z,102952.44
2023-01-28T12:33:04.807Z,102963.13
2023-01-28T12:35:51.369Z,102974.78
2023-01-28T12:38:33.123Z,102964.25
2023-01-28T12:41:08.459Z,102969.28
2023-01-28T12:43:50.966Z,102977.41
2023-01-28T12:46:30.168Z,102983.75
2023-01-28T12:49:04.563Z,102999.19
2023-01-28T12:51:38.615Z,102992.16
2023-01-28T12:54:17.384Z,102995.66
2023-01-28T12:56:51.969Z,102993.00
2023-01-28T12:59:25.777Z,102998.34
2023-01-28T13:02:03.467Z,103004.50
2023-01-28T13:04:40.176Z,103013.22
2023-01-28T13:07:14.490Z,103007.88
2023-01-28T13:09:52.796Z,103007.03
2023-01-28T13:12:23.581Z,103009.00
2023-01-28T13:14:54.186Z,102996.66
2023-01-28T13:17:30.432Z,103003.81
2023-01-28T13:19:59.368Z,103001.97
2023-01-28T13:22:30.299Z,102996.66
2023-01-28T13:24:59.862Z,102998.19
2023-01-28T13:27:29.971Z,102994.56
2023-01-28T13:30:22.963Z,102996.25
2023-01-28T13:32:58.035Z,102994.28
2023-01-28T13:35:34.499Z,102989.66
2023-01-28T13:38:10.048Z,102989.66
2023-01-28T13:40:41.675Z,102990.34
2023-01-28T13:43:37.308Z,102990.22
2023-01-28T13:46:07.701Z,102988.53
2023-01-28T13:48:42.998Z,102982.38
2023-01-28T13:51:20.532Z,102982.69
2023-01-28T13:53:54.570Z,102966.81
2023-01-28T13:56:41.965Z,102968.78
2023-01-28T13:59:44.476Z,102954.28
2023-01-28T14:02:51.136Z,102954.50
2023-01-28T14:05:50.851Z,102948.47
2023-01-28T14:08:45.216Z,102935.84
2023-01-28T14:11:35.838Z,102924.91
2023-01-28T14:14:42.557Z,102922.41
2023-01-28T14:17:23.207Z,102915.81
2023-01-28T14:19:53.934Z,102915.28
2023-01-28T14:22:22.496Z,102924.38
2023-01-28T14:24:50.986Z,102929.03
2023-01-28T14:27:23.552Z,102930.16
2023-01-28T14:30:05.599Z,102930.34
2023-01-28T14:32:35.446Z,102938.88
2023-01-28T14:35:09.723Z,102938.84
2023-01-28T14:37:37.657Z,102954.34
2023-01-28T14:40:08.743Z,102957.03
2023-01-28T14:42:40.383Z,102944.56
2023-01-28T14:45:35.033Z,102955.97
2023-01-28T14:48:21.372Z,102955.53
2023-01-28T14:51:02.913Z,102950.78
2023-01-28T14:53:54.285Z,102966.66
2023-01-28T14:56:34.891Z,102976.66
2023-01-28T14:59:13.947Z,102968.06
2023-01-28T15:01:46.853Z,102959.94
2023-01-28T15:04:29.125Z,102961.63
2023-01-28T15:06:57.303Z,102955.72
2023-01-28T15:09:25.739Z,102962.16
2023-01-28T15:11:58.778Z,102970.44
2023-01-28T15:14:29.557Z,102969.25
2023-01-28T15:16:59.895Z,102970.44
2023-01-28T15:19:30.899Z,102965.47
2023-01-28T15:22:00.832Z,102962.28
2023-01-28T15:24:31.073Z,102948.03
2023-01-28T15:26:59.095Z,102955.81
2023-01-28T15:29:32.811Z,102951.47
2023-01-28T15:32:02.384Z,102955.59
2023-01-28T15:34:31.025Z,102955.09
2023-01-28T15:36:59.296Z,102963.25
2023-01-28T15:39:28.934Z,102968.53
2023-01-28T15:41:59.458Z,102970.00
2023-01-28T15:44:31.071Z,102979.38
2023-01-28T15:47:01.669Z,102994.56
2023-01-28T15:49:33.738Z,102991.63
2023-01-28T15:52:02.167Z,103000.09
2023-01-28T15:54:31.582Z,103010.22
2023-01-28T15:57:10.547Z,103021.63
2023-01-28T15:59:38.260Z,103021.19
2023-01-28T16:02:20.127Z,103034.13
2023-01-28T16:04:59.203Z,103030.06
2023-01-28T16:07:28.292Z,103037.78
2023-01-28T16:09:57.807Z,103040.16
2023-01-28T16:12:26.887Z,103042.28
2023-01-28T16:14:57.778Z,103038.06
2023-01-28T16:17:30.264Z,103027.66
2023-01-28T16:20:02.090Z,103030.47
2023-01-28T16:22:34.971Z,103034.13
2023-01-28T16:25:03.639Z,103007.56
2023-01-28T16:27:32.235Z,103024.56
2023-01-28T16:30:00.019Z,103014.03
2023-01-28T16:32:32.049Z,103004.31
2023-01-28T16:34:59.801Z,102998.28
2023-01-28T16:37:27.753Z,102984.25
2023-01-28T16:39:55.818Z,102998.44
2023-01-28T16:42:23.955Z,102995.75
2023-01-28T16:44:51.625Z,103002.06
2023-01-28T16:47:19.319Z,103021.75
2023-01-28T16:49:48.587Z,103026.25
2023-01-28T16:52:18.395Z,103021.03
2023-01-28T16:54:46.395Z,103023.84
2023-01-28T16:57:16.264Z,103012.47
2023-01-28T16:59:44.347Z,103007.97
2023-01-28T17:02:13.072Z,103016.97
2023-01-28T17:04:40.962Z,103026.66
2023-01-28T17:07:10.514Z,103017.94
2023-01-28T17:09:38.244Z,103017.25
2023-01-28T17:12:06.446Z,103025.38
2023-01-28T17:14:34.174Z,103032.53
2023-01-28T17:17:01.866Z,103030.84
2023-01-28T17:19:29.538Z,103026.38
2023-01-28T17:21:57.427Z,103012.19
2023-01-28T17:24:26.732Z,103010.50
2023-01-28T17:26:55.025Z,103008.81
2023-01-28T17:29:22.754Z,103011.34
2023-01-28T17:31:50.464Z,103021.34
2023-01-28T17:34:18.264Z,103029.78
2023-01-28T17:36:45.940Z,103030.63
2023-01-28T17:39:13.676Z,103036.91
2023-01-28T17:41:42.753Z,103030.03
2023-01-28T17:44:12.663Z,103026.94
2023-01-28T17:46:40.409Z,103027.66
2023-01-28T17:49:08.340Z,103024.69
2023-01-28T17:51:36.065Z,103011.06
2023-01-28T17:54:04.861Z,103021.06
2023-01-28T17:56:32.979Z,103030.06
2023-01-28T17:59:06.509Z,103036.94
2023-01-28T18:01:37.135Z,103032.84
2023-01-28T18:04:05.592Z,103028.78
2023-01-28T18:06:33.784Z,103036.09
2023-01-28T18:09:01.833Z,103049.00
2023-01-28T18:11:29.891Z,103044.66
2023-01-28T18:13:57.727Z,103047.88
2023-01-28T18:16:26.811Z,103042.25
2023-01-28T18:18:54.614Z,103042.56
2023-01-28T18:21:42.922Z,103055.34
2023-01-28T18:24:14.807Z,103064.50
2023-01-28T18:26:42.921Z,103061.25
2023-01-28T18:29:16.435Z,103056.31
2023-01-28T18:31:45.564Z,103076.53
2023-01-28T18:34:13.256Z,103068.66
2023-01-28T18:36:40.963Z,103078.53
2023-01-28T18:39:11.961Z,103079.25
2023-01-28T18:41:39.743Z,103076.03
2023-01-28T18:44:08.793Z,103077.72
2023-01-28T18:46:36.468Z,103080.25
2023-01-28T18:49:05.949Z,103078.25
2023-01-28T18:51:33.743Z,103073.47
2023-01-28T18:54:05.479Z,103067.72
2023-01-28T18:56:33.646Z,103072.47
2023-01-28T18:59:03.068Z,103071.22
2023-01-28T19:01:31.926Z,103077.66
2023-01-28T19:04:00.830Z,103079.91
2023-01-28T19:06:32.024Z,103080.03
2023-01-28T19:09:01.415Z,103075.09
2023-01-28T19:11:31.250Z,103077.06
2023-01-28T19:13:59.367Z,103069.78
2023-01-28T19:16:27.396Z,103067.09
2023-01-28T19:18:56.304Z,103064.44
2023-01-28T19:21:25.167Z,103060.91
2023-01-28T19:23:58.918Z,103065.56
2023-01-28T19:26:27.636Z,103066.66
2023-01-28T19:28:58.607Z,103065.94
2023-01-28T19:31:27.297Z,103065.50
2023-01-28T19:33:56.680Z,103067.19
2023-01-28T19:36:26.000Z,103069.00
2023-01-28T19:38:54.469Z,103080.31
2023-01-28T19:41:23.803Z,103073.88
2023-01-28T19:43:51.621Z,103081.06
2023-01-28T19:46:19.388Z,103073.50
2023-01-28T19:48:47.185Z,103073.06
2023-01-28T19:51:16.564Z,103077.84
2023-01-28T19:53:45.485Z,103086.13
2023-01-28T19:56:14.881Z,103086.41
2023-01-28T19:58:45.362Z,103089.09
2023-01-28T20:01:14.709Z,103092.47
2023-01-28T20:03:43.146Z,103094.72
2023-01-28T20:06:14.281Z,103093.16
2023-01-28T20:08:42.023Z,103094.25
2023-01-28T20:11:11.308Z,103097.63
2023-01-28T20:13:40.546Z,103096.63
2023-01-28T20:16:12.574Z,103093.66
2023-01-28T20:18:40.271Z,103097.72
2023-01-28T20:21:08.259Z,103093.59
2023-01-28T20:23:36.106Z,103093.16
2023-01-28T20:26:03.860Z,103090.75
2023-01-28T20:28:31.608Z,103087.66
2023-01-28T20:31:05.619Z,103083.28
2023-01-28T20:33:35.221Z,103079.22
2023-01-28T20:36:03.530Z,103087.34
2023-01-28T20:38:31.528Z,103083.13
2023-01-28T20:40:59.208Z,103085.09
2023-01-28T20:43:28.696Z,103091.66
2023-01-28T20:46:03.270Z,103083.78
2023-01-28T20:48:30.996Z,103073.25
2023-01-28T20:51:05.708Z,103075.22
2023-01-28T20:53:33.717Z,103067.34
2023-01-28T20:56:01.723Z,103070.16
2023-01-28T20:58:29.647Z,103055.66
2023-01-28T21:00:57.592Z,103065.22
2023-01-28T21:03:25.553Z,103066.19
2023-01-28T21:05:53.567Z,103058.03
2023-01-28T21:08:22.692Z,103060.38
2023-01-28T21:10:50.422Z,103053.50
2023-01-28T21:13:18.155Z,103054.47
2023-01-28T21:15:53.702Z,103056.28
2023-01-28T21:18:21.746Z,103056.28
2023-01-28T21:20:49.657Z,103055.44
2023-01-28T21:23:17.399Z,103054.47
2023-01-28T21:25:47.545Z,103039.59
2023-01-28T21:28:15.326Z,103050.25
2023-01-28T21:30:43.284Z,103057.25
2023-01-28T21:33:11.559Z,103051.94
2023-01-28T21:35:40.388Z,103048.81
2023-01-28T21:38:08.398Z,103053.03
2023-01-28T21:40:37.131Z,103053.88
2023-01-28T21:43:06.263Z,103046.88
2023-01-28T21:45:33.957Z,103048.81
2023-01-28T21:48:01.608Z,103048.69
2023-01-28T21:50:29.401Z,103048.69
2023-01-28T21:52:57.091Z,103055.00
2023-01-28T21:55:24.803Z,103049.81
2023-01-28T21:58:12.803Z,103049.13
2023-01-28T22:00:40.952Z,103048.28
2023-01-28T22:03:08.728Z,103050.94
2023-01-28T22:05:36.526Z,103057.97
2023-01-28T22:08:04.219Z,103059.06
2023-01-28T22:10:31.948Z,103059.06
2023-01-28T22:12:59.736Z,103063.56
2023-01-28T22:15:27.424Z,103069.72
2023-01-28T22:17:56.474Z,103075.19
2023-01-28T22:20:24.276Z,103069.84
2023-01-28T22:22:51.955Z,103067.19
2023-01-28T22:25:19.640Z,103063.81
2023-01-28T22:27:47.303Z,103065.63
2023-01-28T22:30:15.783Z,103066.63
2023-01-28T22:32:43.798Z,103056.94
2023-01-28T22:35:12.873Z,103051.59
2023-01-28T22:37:40.573Z,103047.25
2023-01-28T22:40:09.367Z,103048.94
2023-01-28T22:42:37.062Z,103048.09
2023-01-28T22:45:05.515Z,103051.03
2023-01-28T22:47:33.241Z,103055.63
2023-01-28T22:50:00.953Z,103044.25
2023-01-28T22:52:30.016Z,103050.44
2023-01-28T22:54:57.767Z,103049.72
2023-01-28T22:57:25.477Z,103042.56
2023-01-28T23:00:00.026Z,103049.72
2023-01-28T23:02:28.458Z,103052.38
2023-01-28T23:04:56.153Z,103045.38
2023-01-28T23:07:23.904Z,103039.47
2023-01-28T23:09:53.076Z,103038.47
2023-01-28T23:12:20.812Z,103035.09
2023-01-28T23:15:06.249Z,103032.44
2023-01-28T23:17:51.761Z,103028.22
2023-01-28T23:20:37.021Z,103019.38
2023-01-28T23:23:22.520Z,103015.88
2023-01-28T23:25:51.607Z,103015.88
2023-01-28T23:28:19.295Z,103016.84
2023-01-28T23:30:47.075Z,103011.53
2023-01-28T23:33:14.798Z,103014.31
2023-01-28T23:35:42.520Z,103004.63
2023-01-28T23:38:10.232Z,103016.25
2023-01-28T23:40:37.942Z,103015.41
2023-01-28T23:43:06.983Z,103015.56
2023-01-28T23:45:34.670Z,103010.09
2023-01-28T23:48:04.256Z,103012.03
2023-01-28T23:50:31.987Z,103016.53
2023-01-28T23:53:01.059Z,103003.34
2023-01-28T23:55:29.087Z,103020.16
2023-01-28T23:57:57.015Z,103010.63
